Time;durP1;ratioP1;P1;durP2;ratioP2;P2;SDS_P1;SDS_P2;PMS_P1;PMS_P2;Temp;Humidity;BMP_temperature;BMP_pressure;BME280_temperature;BME280_humidity;BME280_pressure;Samples;Min_cycle;Max_cycle;Signal;HPM_P1;HPM_P2
2021/06/06 00:02:00;;;;;;;6.50;4.55;;;15.20;99.90;;;;;;5030783;28;20033;-45
2021/06/06 00:04:26;;;;;;;5.35;4.80;;;15.30;99.90;;;;;;5030418;28;20065;-45
2021/06/06 00:06:51;;;;;;;5.50;4.60;;;15.30;99.90;;;;;;5031413;28;20057;-48
2021/06/06 00:09:19;;;;;;;5.80;4.95;;;15.30;99.90;;;;;;5031780;28;20037;-47
2021/06/06 00:11:51;;;;;;;5.75;5.15;;;15.30;99.90;;;;;;5031989;28;20408;-45
2021/06/06 00:14:26;;;;;;;5.00;4.38;;;15.40;99.90;;;;;;5031283;28;20346;-48
2021/06/06 00:16:57;;;;;;;8.73;5.82;;;15.40;99.90;;;;;;5025302;28;20021;-47
2021/06/06 00:19:24;;;;;;;7.70;5.65;;;15.30;99.90;;;;;;5051308;28;20031;-47
2021/06/06 00:21:51;;;;;;;8.40;5.72;;;15.40;99.90;;;;;;5051284;28;20029;-48
2021/06/06 00:24:19;;;;;;;7.15;4.65;;;15.40;99.90;;;;;;5051053;28;20067;-47
2021/06/06 00:26:45;;;;;;;6.93;5.20;;;15.30;99.90;;;;;;5051392;28;20483;-48
2021/06/06 00:29:11;;;;;;;6.55;5.32;;;15.30;99.90;;;;;;5051276;28;20067;-45
2021/06/06 00:31:37;;;;;;;6.72;4.47;;;15.30;99.90;;;;;;5050177;28;20032;-45
2021/06/06 00:34:03;;;;;;;7.85;5.05;;;15.30;99.90;;;;;;5050931;28;20025;-45
2021/06/06 00:36:29;;;;;;;5.65;5.03;;;15.30;99.90;;;;;;5037258;28;20550;-51
2021/06/06 00:38:55;;;;;;;5.40;4.50;;;15.30;99.90;;;;;;5031291;28;20025;-49
2021/06/06 00:41:23;;;;;;;6.90;4.97;;;15.20;99.90;;;;;;5031258;28;20021;-46
2021/06/06 00:43:49;;;;;;;5.40;4.53;;;15.20;99.90;;;;;;5029181;28;20026;-45
2021/06/06 00:46:17;;;;;;;6.07;4.82;;;15.20;99.90;;;;;;5028489;28;20038;-47
2021/06/06 00:48:43;;;;;;;6.15;4.53;;;15.10;99.90;;;;;;5028802;28;20029;-45
2021/06/06 00:51:15;;;;;;;7.72;5.45;;;15.10;99.90;;;;;;5031202;28;20033;-47
2021/06/06 00:54:07;;;;;;;4.18;3.70;;;14.90;99.90;;;;;;5030902;28;20024;-45
2021/06/06 00:56:33;;;;;;;11.55;5.07;;;14.90;99.90;;;;;;5030694;28;20034;-46
2021/06/06 00:58:59;;;;;;;6.70;5.03;;;14.80;99.90;;;;;;5030819;28;20425;-49
2021/06/06 01:01:27;;;;;;;5.40;4.18;;;14.80;99.90;;;;;;5029511;28;20547;-45
2021/06/06 01:03:55;;;;;;;7.40;5.03;;;14.70;99.90;;;;;;5029517;28;20057;-46
2021/06/06 01:06:37;;;;;;;6.50;5.10;;;14.70;99.90;;;;;;5030605;28;20083;-47
2021/06/06 01:09:05;;;;;;;5.40;4.90;;;14.60;99.90;;;;;;5030619;28;20063;-46
2021/06/06 01:11:59;;;;;;;6.30;5.43;;;14.60;99.90;;;;;;5030318;28;20064;-45
2021/06/06 01:14:37;;;;;;;6.70;5.22;;;14.60;99.90;;;;;;5030141;28;20029;-47
2021/06/06 01:17:12;;;;;;;5.65;4.57;;;14.60;99.90;;;;;;5049421;28;20126;-45
2021/06/06 01:19:47;;;;;;;5.97;4.70;;;14.50;99.90;;;;;;5050706;28;20028;-45
2021/06/06 01:22:47;;;;;;;11.27;5.28;;;14.40;99.90;;;;;;5050295;28;20291;-49
2021/06/06 01:25:17;;;;;;;5.40;4.15;;;14.30;99.90;;;;;;5050285;28;20032;-45
2021/06/06 01:27:50;;;;;;;5.80;4.22;;;14.10;99.90;;;;;;5050616;28;20029;-45
2021/06/06 01:30:21;;;;;;;7.78;5.47;;;14.10;99.90;;;;;;5050407;28;20048;-48
2021/06/06 01:32:59;;;;;;;5.47;4.90;;;14.10;99.90;;;;;;5049218;28;20080;-48
2021/06/06 01:35:38;;;;;;;6.57;5.50;;;14.00;99.90;;;;;;5045501;28;20108;-47
2021/06/06 01:38:12;;;;;;;7.82;4.85;;;14.00;99.90;;;;;;5018910;28;20021;-46
2021/06/06 01:40:40;;;;;;;6.90;4.88;;;14.00;99.90;;;;;;5030375;28;20060;-47
2021/06/06 01:43:10;;;;;;;6.78;5.45;;;14.00;99.90;;;;;;5030655;28;20168;-47
2021/06/06 01:45:43;;;;;;;6.78;5.43;;;14.00;99.90;;;;;;5030740;28;20036;-46
2021/06/06 01:48:12;;;;;;;6.97;5.00;;;14.00;99.90;;;;;;5029703;28;20512;-46
2021/06/06 01:50:43;;;;;;;5.57;4.38;;;13.90;99.90;;;;;;5032075;28;20532;-45
2021/06/06 01:53:10;;;;;;;8.85;5.88;;;13.80;99.90;;;;;;5032101;28;20021;-51
2021/06/06 01:55:42;;;;;;;6.53;5.30;;;13.80;99.90;;;;;;5030367;28;20030;-49
2021/06/06 01:58:08;;;;;;;6.88;5.80;;;13.70;99.90;;;;;;5032135;28;20041;-48
2021/06/06 02:00:41;;;;;;;7.55;5.43;;;13.70;99.90;;;;;;5033923;28;20080;-47
2021/06/06 02:03:07;;;;;;;8.07;5.70;;;13.70;99.90;;;;;;5034743;28;20030;-46
2021/06/06 02:05:33;;;;;;;10.82;6.28;;;13.80;99.90;;;;;;5035806;28;20048;-48
2021/06/06 02:08:01;;;;;;;8.25;5.57;;;13.80;99.90;;;;;;5035777;28;20017;-45
2021/06/06 02:10:36;;;;;;;6.57;5.22;;;13.90;99.90;;;;;;5035549;28;20045;-48
2021/06/06 02:13:19;;;;;;;7.10;6.13;;;13.90;99.90;;;;;;5034620;28;20144;-46
2021/06/06 02:15:47;;;;;;;6.78;5.75;;;13.90;99.90;;;;;;5035622;28;20033;-46
2021/06/06 02:18:12;;;;;;;7.05;5.22;;;13.90;99.90;;;;;;5034536;28;20063;-45
2021/06/06 02:20:44;;;;;;;9.52;6.15;;;13.90;99.90;;;;;;5035408;28;20291;-45
2021/06/06 02:23:13;;;;;;;5.80;4.78;;;13.90;99.90;;;;;;5035665;28;20038;-45
2021/06/06 02:25:39;;;;;;;6.35;5.72;;;13.80;99.90;;;;;;5035074;28;20061;-46
2021/06/06 02:28:24;;;;;;;7.88;6.18;;;13.70;99.90;;;;;;5035673;28;20065;-45
2021/06/06 02:31:29;;;;;;;6.20;5.53;;;13.70;99.90;;;;;;5035298;28;20076;-45
2021/06/06 02:34:18;;;;;;;8.82;5.63;;;13.60;99.90;;;;;;5035530;28;20516;-46
2021/06/06 02:36:53;;;;;;;8.20;5.50;;;13.60;99.90;;;;;;5035357;28;20030;-45
2021/06/06 02:39:25;;;;;;;8.35;5.63;;;13.50;99.90;;;;;;5034995;28;20025;-45
2021/06/06 02:42:11;;;;;;;7.78;5.55;;;13.50;99.90;;;;;;5035382;28;20048;-47
2021/06/06 02:44:40;;;;;;;8.30;6.30;;;13.40;99.90;;;;;;5035055;28;20060;-47
2021/06/06 02:47:07;;;;;;;6.68;5.32;;;13.40;99.90;;;;;;5034013;28;20030;-47
2021/06/06 02:49:37;;;;;;;6.15;5.40;;;13.40;99.90;;;;;;5034922;28;20021;-45
2021/06/06 02:52:20;;;;;;;8.13;5.05;;;13.40;99.90;;;;;;5035098;28;20037;-45
2021/06/06 02:54:51;;;;;;;6.97;4.90;;;13.30;99.90;;;;;;5034998;28;20032;-47
2021/06/06 02:57:18;;;;;;;8.70;5.38;;;13.30;99.90;;;;;;5035125;28;20100;-45
2021/06/06 03:00:00;;;;;;;5.82;5.15;;;13.30;99.90;;;;;;5034741;28;20141;-47
2021/06/06 03:02:40;;;;;;;8.52;6.10;;;13.30;99.90;;;;;;5033814;28;20097;-45
2021/06/06 03:05:08;;;;;;;6.20;5.22;;;13.30;99.90;;;;;;5034669;28;20034;-47
2021/06/06 03:07:38;;;;;;;6.72;5.55;;;13.30;99.90;;;;;;5034850;28;20069;-47
2021/06/06 03:10:08;;;;;;;7.47;6.38;;;13.30;99.90;;;;;;5034732;28;20063;-45
2021/06/06 03:12:35;;;;;;;8.82;6.15;;;13.30;99.90;;;;;;5033686;28;20044;-47
2021/06/06 03:15:03;;;;;;;6.65;4.90;;;13.30;99.90;;;;;;5034623;28;20425;-46
2021/06/06 03:17:35;;;;;;;6.63;5.88;;;13.30;99.90;;;;;;5033189;28;20052;-45
2021/06/06 03:20:10;;;;;;;8.07;5.47;;;13.30;99.90;;;;;;5034612;28;20456;-47
2021/06/06 03:22:39;;;;;;;6.93;5.07;;;13.30;99.90;;;;;;5033379;28;20039;-45
2021/06/06 03:25:27;;;;;;;7.28;4.32;;;13.30;99.90;;;;;;5034072;28;20029;-47
2021/06/06 03:27:54;;;;;;;7.07;5.32;;;13.30;99.90;;;;;;5034539;28;20024;-45
2021/06/06 03:30:27;;;;;;;6.00;5.32;;;13.40;99.90;;;;;;5034400;28;20025;-47
2021/06/06 03:32:54;;;;;;;5.20;4.55;;;13.40;99.90;;;;;;5033116;28;20079;-45
2021/06/06 03:35:19;;;;;;;7.28;5.32;;;13.50;99.90;;;;;;5034139;28;20028;-45
2021/06/06 03:37:45;;;;;;;5.10;4.40;;;13.60;99.90;;;;;;5033931;28;20033;-47
2021/06/06 03:40:12;;;;;;;5.57;4.90;;;13.90;99.90;;;;;;5034116;28;20029;-47
2021/06/06 03:42:38;;;;;;;5.30;4.72;;;14.70;99.90;;;;;;5034146;28;20068;-45
2021/06/06 03:45:07;;;;;;;5.72;5.13;;;15.30;99.90;;;;;;5033997;28;20171;-47
2021/06/06 03:47:32;;;;;;;6.10;5.50;;;15.60;99.90;;;;;;5031835;28;20021;-49
2021/06/06 03:49:58;;;;;;;6.40;4.78;;;15.90;99.90;;;;;;5034036;28;20029;-48
2021/06/06 03:52:23;;;;;;;6.00;4.63;;;16.60;99.90;;;;;;5033958;28;20025;-46
2021/06/06 03:54:51;;;;;;;9.20;5.55;;;17.30;99.90;;;;;;5033811;28;20065;-47
2021/06/06 03:57:17;;;;;;;7.35;4.95;;;17.80;99.90;;;;;;5033852;28;20024;-46
2021/06/06 03:59:42;;;;;;;6.97;4.82;;;18.20;99.20;;;;;;5033547;28;20045;-46
2021/06/06 04:02:08;;;;;;;6.63;4.63;;;18.60;97.50;;;;;;5033028;28;20040;-45
2021/06/06 04:04:33;;;;;;;5.25;4.43;;;18.70;96.40;;;;;;5033679;28;20044;-51
2021/06/06 04:06:59;;;;;;;5.38;4.35;;;19.10;95.30;;;;;;5033545;28;20100;-52
2021/06/06 04:09:24;;;;;;;7.32;4.70;;;19.50;94.10;;;;;;5033745;28;20112;-47
2021/06/06 04:11:50;;;;;;;5.55;4.22;;;20.00;92.50;;;;;;5033339;28;20049;-52
2021/06/06 04:14:15;;;;;;;5.05;4.55;;;20.40;91.20;;;;;;5033696;28;20429;-48
2021/06/06 04:16:41;;;;;;;5.05;4.40;;;20.50;90.40;;;;;;5032349;28;20029;-48
2021/06/06 04:19:06;;;;;;;5.22;4.20;;;21.00;88.90;;;;;;5032311;28;20025;-50
2021/06/06 04:21:33;;;;;;;7.30;4.05;;;21.00;88.20;;;;;;5033141;28;20059;-47
2021/06/06 04:23:59;;;;;;;5.30;4.32;;;21.40;86.80;;;;;;5033354;28;20052;-45
2021/06/06 04:26:25;;;;;;;4.90;4.40;;;22.20;84.10;;;;;;5033184;28;20377;-45
2021/06/06 04:28:51;;;;;;;4.70;4.30;;;22.90;81.50;;;;;;5033393;28;20040;-48
2021/06/06 04:31:18;;;;;;;5.03;4.50;;;23.80;78.90;;;;;;5032345;28;20495;-47
2021/06/06 04:33:44;;;;;;;4.43;4.03;;;24.90;76.10;;;;;;5031880;28;20322;-50
2021/06/06 04:36:10;;;;;;;5.07;4.57;;;25.50;73.60;;;;;;5032990;28;20037;-49
2021/06/06 04:38:36;;;;;;;5.00;4.57;;;25.60;72.60;;;;;;5033222;28;20029;-48
2021/06/06 04:41:07;;;;;;;5.05;4.55;;;25.60;71.90;;;;;;5032975;28;20028;-48
2021/06/06 04:43:33;;;;;;;6.85;5.75;;;25.30;71.50;;;;;;5030678;28;20102;-50
2021/06/06 04:45:59;;;;;;;5.13;4.43;;;24.60;72.10;;;;;;5032270;28;20026;-49
2021/06/06 04:48:30;;;;;;;5.10;4.60;;;23.90;72.80;;;;;;5032461;28;20476;-49
2021/06/06 04:50:58;;;;;;;5.20;4.75;;;23.90;72.80;;;;;;5032767;28;20599;-49
2021/06/06 04:53:25;;;;;;;5.05;4.55;;;24.70;71.20;;;;;;5032968;28;20029;-51
2021/06/06 04:55:51;;;;;;;5.68;4.63;;;25.70;69.30;;;;;;5032488;28;20421;-52
2021/06/06 04:58:19;;;;;;;5.65;4.22;;;26.80;66.70;;;;;;5032543;28;20025;-49
2021/06/06 05:00:44;;;;;;;5.55;4.85;;;28.30;64.40;;;;;;5029292;28;20040;-50
2021/06/06 05:03:12;;;;;;;6.13;4.82;;;29.00;62.50;;;;;;5031449;28;20026;-49
2021/06/06 05:05:38;;;;;;;5.00;4.47;;;28.40;61.30;;;;;;5032419;28;20108;-53
2021/06/06 05:08:05;;;;;;;6.47;4.70;;;27.80;61.70;;;;;;5032497;28;20064;-52
2021/06/06 05:10:34;;;;;;;5.43;4.60;;;27.40;62.60;;;;;;5032583;28;20030;-51
2021/06/06 05:13:00;;;;;;;5.55;5.05;;;28.40;61.50;;;;;;5032282;28;20028;-54
2021/06/06 05:15:26;;;;;;;5.82;5.13;;;29.70;58.70;;;;;;5032348;28;20029;-49
2021/06/06 05:17:53;;;;;;;5.65;5.10;;;30.60;56.50;;;;;;5031163;28;20040;-49
2021/06/06 05:20:23;;;;;;;6.20;5.28;;;30.30;55.50;;;;;;5032422;28;20048;-50
2021/06/06 05:22:49;;;;;;;5.07;4.60;;;29.40;55.40;;;;;;5032254;28;20030;-52
2021/06/06 05:25:15;;;;;;;6.32;5.43;;;29.50;55.50;;;;;;5032127;28;20067;-51
2021/06/06 05:27:41;;;;;;;6.35;4.43;;;30.10;54.30;;;;;;5030827;28;20419;-49
2021/06/06 05:30:10;;;;;;;5.75;4.90;;;29.40;54.50;;;;;;5032691;28;20551;-49
2021/06/06 05:32:36;;;;;;;7.72;6.15;;;28.40;55.20;;;;;;5031099;28;20017;-49
2021/06/06 05:35:03;;;;;;;7.75;6.03;;;27.50;55.40;;;;;;5033578;28;20041;-48
2021/06/06 05:37:28;;;;;;;6.80;6.10;;;27.40;55.90;;;;;;5036459;28;20032;-49
2021/06/06 05:39:54;;;;;;;5.60;5.10;;;28.20;55.10;;;;;;5036487;28;20033;-47
2021/06/06 05:42:20;;;;;;;7.25;5.28;;;27.90;54.90;;;;;;5036331;28;20542;-51
2021/06/06 05:44:46;;;;;;;4.78;4.35;;;27.40;55.40;;;;;;5036002;28;20161;-53
2021/06/06 05:47:11;;;;;;;5.07;4.55;;;27.00;56.40;;;;;;5035401;28;20104;-48
2021/06/06 05:49:37;;;;;;;6.40;4.70;;;27.00;56.80;;;;;;5036284;28;20026;-52
2021/06/06 05:52:03;;;;;;;5.35;4.80;;;26.80;57.00;;;;;;5034854;28;20388;-50
2021/06/06 05:54:29;;;;;;;6.38;5.78;;;27.40;56.70;;;;;;5036013;28;20053;-48
2021/06/06 05:56:55;;;;;;;6.07;5.03;;;28.20;55.00;;;;;;5036001;28;20053;-50
2021/06/06 05:59:20;;;;;;;7.35;5.28;;;28.50;54.30;;;;;;5035869;28;20057;-52
2021/06/06 06:01:46;;;;;;;4.93;4.25;;;28.60;54.20;;;;;;5034459;28;20369;-52
2021/06/06 06:04:11;;;;;;;5.38;4.88;;;29.40;53.60;;;;;;5035911;28;20017;-51
2021/06/06 06:06:37;;;;;;;5.72;5.13;;;31.10;52.60;;;;;;5035860;28;20499;-47
2021/06/06 06:09:03;;;;;;;7.13;5.15;;;33.20;49.90;;;;;;5035968;28;20065;-54
2021/06/06 06:11:30;;;;;;;4.95;4.53;;;35.10;48.10;;;;;;5035870;28;20026;-50
2021/06/06 06:13:56;;;;;;;5.80;4.65;;;35.80;47.40;;;;;;5035709;28;20045;-52
2021/06/06 06:16:26;;;;;;;6.30;4.93;;;36.10;46.20;;;;;;5034630;28;20061;-52
2021/06/06 06:18:52;;;;;;;6.70;6.00;;;36.50;45.50;;;;;;5035721;28;20026;-49
2021/06/06 06:21:20;;;;;;;6.00;5.25;;;37.20;43.30;;;;;;5035571;28;20025;-52
2021/06/06 06:23:46;;;;;;;8.23;5.72;;;37.40;42.60;;;;;;5035747;28;20029;-52
2021/06/06 06:26:12;;;;;;;5.60;5.10;;;37.90;41.90;;;;;;5034092;28;20469;-52
2021/06/06 06:28:38;;;;;;;6.38;5.18;;;38.40;41.30;;;;;;5035554;28;20497;-52
2021/06/06 06:31:04;;;;;;;7.18;5.38;;;38.70;40.50;;;;;;5034241;28;20071;-50
2021/06/06 06:33:30;;;;;;;5.72;5.22;;;39.00;39.80;;;;;;5035587;28;20022;-54
2021/06/06 06:35:56;;;;;;;5.60;4.55;;;39.00;39.80;;;;;;5035219;28;20029;-48
2021/06/06 06:38:29;;;;;;;4.97;4.47;;;39.40;40.00;;;;;;5035445;28;20033;-52
2021/06/06 06:40:55;;;;;;;5.28;4.50;;;39.40;38.40;;;;;;5035152;28;20014;-48
2021/06/06 06:43:21;;;;;;;4.78;4.32;;;38.20;39.30;;;;;;5035204;28;20026;-49
2021/06/06 06:45:46;;;;;;;5.45;4.97;;;38.00;40.00;;;;;;5034434;28;20044;-51
2021/06/06 06:48:18;;;;;;;7.18;5.88;;;38.30;39.90;;;;;;5033628;28;20026;-52
2021/06/06 06:50:45;;;;;;;5.90;5.35;;;39.00;38.20;;;;;;5035271;28;20026;-51
2021/06/06 06:53:11;;;;;;;5.47;4.97;;;39.40;38.70;;;;;;5035060;28;20030;-48
2021/06/06 06:55:37;;;;;;;5.22;4.40;;;40.50;37.90;;;;;;5035100;28;20033;-53
2021/06/06 06:58:04;;;;;;;5.60;5.03;;;40.90;37.60;;;;;;5034803;28;20041;-49
2021/06/06 07:00:35;;;;;;;6.40;4.80;;;41.30;36.90;;;;;;5034998;28;20054;-47
2021/06/06 07:03:01;;;;;;;7.10;5.10;;;40.60;36.00;;;;;;5033910;28;20085;-52
2021/06/06 07:05:26;;;;;;;6.78;4.50;;;40.50;36.60;;;;;;5034968;28;20025;-50
2021/06/06 07:07:52;;;;;;;5.32;4.82;;;40.40;36.40;;;;;;5034805;28;20384;-48
2021/06/06 07:10:21;;;;;;;7.55;5.07;;;40.20;36.50;;;;;;5034775;28;20026;-47
2021/06/06 07:12:47;;;;;;;5.20;4.70;;;40.60;36.20;;;;;;5034658;28;20025;-50
2021/06/06 07:15:14;;;;;;;5.47;4.45;;;41.00;35.80;;;;;;5034448;28;20505;-49
2021/06/06 07:17:41;;;;;;;7.55;5.13;;;41.90;35.50;;;;;;5033791;28;20033;-47
2021/06/06 07:20:09;;;;;;;5.72;4.40;;;42.30;34.50;;;;;;5034639;28;20056;-49
2021/06/06 07:22:35;;;;;;;4.97;4.47;;;42.20;34.50;;;;;;5034482;28;20060;-49
2021/06/06 07:25:02;;;;;;;4.70;4.30;;;42.20;34.70;;;;;;5034319;28;20033;-61
2021/06/06 07:27:30;;;;;;;5.13;4.63;;;42.40;34.60;;;;;;5031971;28;20036;-63
2021/06/06 07:29:55;;;;;;;6.13;4.55;;;42.40;34.30;;;;;;5034223;28;20384;-63
2021/06/06 07:32:22;;;;;;;5.22;4.30;;;42.10;33.80;;;;;;5033291;28;20029;-62
2021/06/06 07:34:47;;;;;;;4.25;3.85;;;42.40;33.10;;;;;;5034370;28;20033;-63
2021/06/06 07:37:14;;;;;;;6.28;4.65;;;42.80;34.00;;;;;;5034041;28;20029;-62
2021/06/06 07:39:40;;;;;;;4.82;4.20;;;43.40;33.70;;;;;;5034226;28;20072;-63
2021/06/06 07:42:13;;;;;;;5.20;4.70;;;43.40;33.50;;;;;;5032568;28;20117;-63
2021/06/06 07:44:40;;;;;;;4.57;3.90;;;42.40;33.30;;;;;;5034185;28;20569;-63
2021/06/06 07:47:07;;;;;;;5.25;4.40;;;42.10;34.00;;;;;;5032918;28;20100;-61
2021/06/06 07:49:34;;;;;;;4.57;3.75;;;42.70;33.80;;;;;;5034258;28;20033;-60
2021/06/06 07:52:00;;;;;;;3.60;3.30;;;43.40;33.50;;;;;;5033820;28;20045;-61
2021/06/06 07:54:26;;;;;;;4.32;3.60;;;44.40;33.10;;;;;;5033950;28;20076;-60
2021/06/06 07:56:53;;;;;;;5.10;4.60;;;44.70;32.50;;;;;;5033813;28;20377;-61
2021/06/06 07:59:18;;;;;;;4.43;4.10;;;44.60;31.50;;;;;;5033321;28;20049;-61
2021/06/06 08:01:44;;;;;;;4.55;4.15;;;44.30;31.60;;;;;;5032850;28;20450;-61
2021/06/06 08:04:09;;;;;;;3.95;2.95;;;44.30;31.70;;;;;;5033733;28;20030;-61
2021/06/06 08:06:35;;;;;;;3.47;3.17;;;44.50;31.90;;;;;;5033589;28;20481;-61
2021/06/06 08:09:00;;;;;;;4.90;3.63;;;45.00;31.60;;;;;;5029187;28;20087;-60
2021/06/06 08:11:26;;;;;;;4.40;4.00;;;44.50;31.10;;;;;;5031894;28;20026;-61
2021/06/06 08:13:52;;;;;;;6.72;3.70;;;44.30;31.30;;;;;;5033242;28;20022;-61
2021/06/06 08:16:19;;;;;;;4.72;3.58;;;44.40;30.90;;;;;;5032350;28;20192;-61
2021/06/06 08:18:47;;;;;;;4.03;3.00;;;44.30;30.80;;;;;;5032125;28;20377;-60
2021/06/06 08:21:20;;;;;;;4.70;3.58;;;44.70;31.00;;;;;;5033020;28;20484;-60
2021/06/06 08:23:47;;;;;;;3.78;3.47;;;44.60;30.70;;;;;;5033205;28;20025;-60
2021/06/06 08:26:14;;;;;;;4.93;3.03;;;44.60;30.60;;;;;;5033020;28;20033;-61
2021/06/06 08:28:40;;;;;;;4.03;3.70;;;44.80;30.70;;;;;;5033192;28;20026;-61
2021/06/06 08:31:12;;;;;;;5.15;3.70;;;44.70;30.10;;;;;;5032047;28;20105;-61
2021/06/06 08:33:39;;;;;;;3.85;3.55;;;44.30;30.50;;;;;;5030208;28;20026;-61
2021/06/06 08:36:39;;;;;;;4.32;3.10;;;43.80;30.50;;;;;;5032637;28;20026;-61
2021/06/06 08:39:21;;;;;;;4.57;3.22;;;42.60;30.50;;;;;;5032467;28;20033;-61
2021/06/06 08:42:12;;;;;;;3.47;2.60;;;41.60;30.70;;;;;;5032854;28;20032;-61
2021/06/06 08:44:42;;;;;;;2.78;2.00;;;41.80;30.50;;;;;;5032364;28;20440;-61
2021/06/06 08:47:22;;;;;;;2.92;2.20;;;42.00;30.90;;;;;;5031587;28;20213;-61
2021/06/06 08:49:51;;;;;;;3.65;2.78;;;42.10;30.90;;;;;;5032616;28;20017;-61
2021/06/06 08:52:28;;;;;;;3.78;3.03;;;42.30;31.80;;;;;;5032718;28;20473;-63
2021/06/06 08:54:58;;;;;;;4.35;3.15;;;42.60;31.00;;;;;;5030334;28;20053;-63
2021/06/06 08:57:36;;;;;;;3.63;3.33;;;41.80;30.80;;;;;;5030902;28;20486;-63
2021/06/06 09:00:10;;;;;;;3.30;3.00;;;40.50;30.60;;;;;;5032138;28;20061;-63
2021/06/06 09:02:47;;;;;;;;;;;39.30;31.20;;;;;;5032328;28;20029;-65
2021/06/06 09:05:23;;;;;;;3.53;3.22;;;38.00;31.60;;;;;;5030921;28;20375;-63
2021/06/06 09:07:52;;;;;;;3.50;3.10;;;37.10;32.30;;;;;;5032469;28;20033;-62
2021/06/06 09:10:24;;;;;;;3.40;3.13;;;36.80;32.70;;;;;;5031709;28;20048;-63
2021/06/06 09:12:50;;;;;;;3.10;2.90;;;36.60;33.00;;;;;;5032529;28;20499;-62
2021/06/06 09:15:19;;;;;;;2.80;2.60;;;36.50;33.00;;;;;;5032305;28;20481;-62
2021/06/06 09:17:59;;;;;;;5.70;2.70;;;36.00;33.10;;;;;;5031129;28;20025;-62
2021/06/06 09:20:38;;;;;;;2.58;2.38;;;37.10;32.60;;;;;;5032354;28;20100;-63
2021/06/06 09:23:17;;;;;;;2.47;2.28;;;37.70;31.60;;;;;;5032308;28;20029;-62
2021/06/06 09:25:45;;;;;;;3.53;3.22;;;37.40;32.20;;;;;;5032306;28;20030;-63
2021/06/06 09:28:23;;;;;;;3.20;2.90;;;36.70;32.40;;;;;;5031937;28;20029;-63
2021/06/06 09:30:58;;;;;;;3.47;2.50;;;36.00;32.90;;;;;;5032468;28;20025;-63
2021/06/06 09:33:39;;;;;;;3.00;2.80;;;35.70;33.40;;;;;;5030613;28;20022;-62
2021/06/06 09:36:37;;;;;;;3.10;2.80;;;36.00;34.60;;;;;;5032153;28;20034;-63
2021/06/06 09:39:03;;;;;;;2.90;2.60;;;36.20;33.70;;;;;;5031511;28;20049;-62
2021/06/06 09:41:33;;;;;;;3.42;3.13;;;36.20;33.20;;;;;;5032214;28;20026;-62
2021/06/06 09:44:19;;;;;;;3.30;3.00;;;35.90;33.60;;;;;;5032149;28;20469;-62
2021/06/06 09:46:46;;;;;;;3.40;3.10;;;35.50;34.60;;;;;;5030355;28;20081;-64
2021/06/06 09:49:32;;;;;;;3.58;3.28;;;35.00;34.10;;;;;;5030380;28;20067;-63
2021/06/06 09:52:11;;;;;;;3.20;2.65;;;34.80;33.70;;;;;;5031923;28;20314;-63
2021/06/06 09:54:39;;;;;;;2.88;2.63;;;34.60;34.30;;;;;;5032197;28;20033;-63
2021/06/06 09:57:36;;;;;;;3.00;2.72;;;34.40;34.50;;;;;;5032043;28;20400;-63
2021/06/06 10:00:07;;;;;;;3.28;2.97;;;34.20;34.80;;;;;;5026350;28;20125;-61
2021/06/06 10:02:38;;;;;;;2.70;2.50;;;33.80;34.00;;;;;;5029541;28;20484;-64
2021/06/06 10:05:21;;;;;;;4.70;3.20;;;33.60;33.60;;;;;;5031718;28;20040;-63
2021/06/06 10:07:59;;;;;;;3.17;2.90;;;33.20;33.90;;;;;;5031748;28;20108;-63
2021/06/06 10:10:38;;;;;;;2.60;2.40;;;32.80;34.20;;;;;;5031834;28;20105;-63
2021/06/06 10:13:09;;;;;;;3.95;2.85;;;32.50;34.30;;;;;;5031771;28;20037;-63
2021/06/06 10:15:51;;;;;;;2.70;2.50;;;32.40;34.80;;;;;;5031854;28;20029;-62
2021/06/06 10:18:32;;;;;;;2.72;2.53;;;32.60;34.70;;;;;;5029759;28;20025;-63
2021/06/06 10:21:11;;;;;;;2.67;2.40;;;32.80;34.30;;;;;;5032767;28;20473;-62
2021/06/06 10:23:51;;;;;;;3.95;2.53;;;32.80;34.20;;;;;;5035560;28;20492;-63
2021/06/06 10:26:20;;;;;;;2.67;2.30;;;33.00;34.30;;;;;;5035264;28;20036;-63
2021/06/06 10:28:50;;;;;;;5.10;2.65;;;33.10;34.30;;;;;;5035174;28;20049;-62
2021/06/06 10:31:22;;;;;;;3.05;2.53;;;33.00;34.10;;;;;;5033159;28;20456;-62
2021/06/06 10:33:56;;;;;;;2.63;2.40;;;33.00;34.00;;;;;;5035176;28;20028;-63
2021/06/06 10:36:26;;;;;;;2.38;2.17;;;33.10;33.90;;;;;;5031331;28;20033;-62
2021/06/06 10:38:51;;;;;;;2.40;2.20;;;33.10;33.70;;;;;;5035217;28;20032;-63
2021/06/06 10:41:57;;;;;;;2.78;2.33;;;33.00;33.90;;;;;;5043064;28;20400;-63
2021/06/06 10:44:43;;;;;;;2.63;2.42;;;33.00;33.40;;;;;;5054913;28;20027;-62
2021/06/06 10:47:19;;;;;;;;;;;32.90;33.80;;;;;;5022157;28;20034;-63
2021/06/06 10:49:59;;;;;;;2.90;2.70;;;32.80;34.70;;;;;;5044155;28;19944;-63
2021/06/06 10:52:27;;;;;;;3.00;2.67;;;32.60;33.30;;;;;;5041864;28;20033;-63
2021/06/06 10:54:59;;;;;;;3.42;2.75;;;32.30;34.00;;;;;;5038856;28;20096;-63
2021/06/06 10:57:24;;;;;;;3.75;2.90;;;31.90;34.70;;;;;;5032915;28;20477;-63
2021/06/06 11:00:10;;;;;;;4.18;3.25;;;31.70;35.00;;;;;;5032745;28;20102;-63
2021/06/06 11:02:54;;;;;;;3.20;2.90;;;31.40;35.30;;;;;;5030514;28;20763;-63
2021/06/06 11:05:33;;;;;;;3.20;2.88;;;31.00;35.60;;;;;;5052141;28;20033;-63
2021/06/06 11:07:59;;;;;;;2.58;2.38;;;30.70;35.80;;;;;;5036099;28;20029;-63
2021/06/06 11:10:24;;;;;;;2.95;2.63;;;30.80;36.50;;;;;;5032641;28;20032;-63
2021/06/06 11:12:53;;;;;;;3.22;2.50;;;31.30;35.60;;;;;;5032889;28;20117;-63
2021/06/06 11:15:37;;;;;;;2.95;2.75;;;31.80;35.60;;;;;;5032423;28;20048;-63
2021/06/06 11:18:16;;;;;;;3.30;3.00;;;31.60;35.40;;;;;;5031950;28;20052;-62
2021/06/06 11:21:01;;;;;;;3.22;2.88;;;31.10;35.30;;;;;;5027667;28;20418;-63
2021/06/06 11:23:47;;;;;;;2.70;2.50;;;31.10;36.00;;;;;;5052261;28;20032;-62
2021/06/06 11:26:36;;;;;;;4.85;2.83;;;31.30;36.10;;;;;;5052257;28;20059;-60
2021/06/06 11:29:20;;;;;;;3.50;3.22;;;31.50;36.30;;;;;;5052289;28;20084;-60
2021/06/06 11:32:11;;;;;;;5.20;3.40;;;31.10;36.80;;;;;;5051299;28;20028;-60
2021/06/06 11:34:40;;;;;;;3.00;2.70;;;30.80;36.80;;;;;;5052107;28;20506;-60
2021/06/06 11:37:15;;;;;;;3.42;3.10;;;30.60;37.00;;;;;;5031049;28;20057;-60
2021/06/06 11:39:43;;;;;;;;;;;30.50;37.50;;;;;;5032589;28;20551;-60
2021/06/06 11:42:36;;;;;;;3.47;3.17;;;30.40;36.80;;;;;;5032417;28;19932;-60
2021/06/06 11:45:08;;;;;;;3.67;3.25;;;30.20;37.20;;;;;;5032126;28;20033;-59
2021/06/06 11:47:44;;;;;;;2.95;2.75;;;30.10;37.60;;;;;;5031462;28;20167;-60
2021/06/06 11:50:24;;;;;;;3.42;3.13;;;30.00;37.30;;;;;;5032715;28;20053;-60
2021/06/06 11:53:05;;;;;;;6.07;3.50;;;30.20;37.20;;;;;;5031730;28;20025;-60
2021/06/06 11:55:38;;;;;;;3.83;3.10;;;30.20;37.90;;;;;;5020271;28;20033;-60
2021/06/06 11:58:21;;;;;;;3.58;3.00;;;29.90;37.00;;;;;;5030864;28;20033;-62
2021/06/06 12:00:48;;;;;;;3.70;3.40;;;29.70;37.20;;;;;;5033769;28;20481;-62
2021/06/06 12:03:29;;;;;;;3.60;3.30;;;29.50;37.70;;;;;;5033410;28;20091;-63
2021/06/06 12:06:06;;;;;;;4.60;3.33;;;29.50;37.50;;;;;;5033736;28;20029;-62
2021/06/06 12:08:41;;;;;;;3.90;3.60;;;29.50;37.50;;;;;;5033459;28;20026;-63
2021/06/06 12:11:19;;;;;;;3.60;3.30;;;29.60;37.60;;;;;;5033600;28;20025;-62
2021/06/06 12:13:46;;;;;;;4.90;3.22;;;29.70;37.60;;;;;;5033500;28;20477;-62
2021/06/06 12:16:18;;;;;;;4.18;3.40;;;29.80;37.40;;;;;;5032692;28;20041;-62
2021/06/06 12:18:47;;;;;;;2.65;2.45;;;30.00;37.50;;;;;;5033461;28;20057;-62
2021/06/06 12:21:23;;;;;;;5.38;3.05;;;30.20;37.20;;;;;;5033239;28;20034;-62
2021/06/06 12:24:03;;;;;;;3.20;2.90;;;30.30;36.90;;;;;;5033312;28;20048;-62
2021/06/06 12:26:33;;;;;;;3.05;2.67;;;30.30;37.00;;;;;;5033320;28;20025;-63
2021/06/06 12:28:58;;;;;;;3.58;3.28;;;30.40;37.10;;;;;;5033291;28;20021;-63
2021/06/06 12:31:37;;;;;;;2.92;2.53;;;30.50;36.90;;;;;;5031080;28;20025;-63
2021/06/06 12:34:20;;;;;;;5.18;2.90;;;30.50;36.80;;;;;;5033074;28;20484;-63
2021/06/06 12:36:48;;;;;;;2.80;2.60;;;30.60;36.40;;;;;;5033170;28;20545;-63
2021/06/06 12:39:21;;;;;;;2.88;2.67;;;30.70;36.50;;;;;;5031850;28;20159;-63
2021/06/06 12:41:53;;;;;;;3.30;3.00;;;30.70;36.30;;;;;;5033079;28;20464;-64
2021/06/06 12:44:23;;;;;;;3.30;2.97;;;30.60;37.10;;;;;;5031527;28;20056;-64
2021/06/06 12:46:53;;;;;;;4.00;3.08;;;30.50;37.50;;;;;;5030729;28;20080;-64
2021/06/06 12:49:50;;;;;;;3.33;2.88;;;30.40;37.30;;;;;;5032886;28;20017;-63
2021/06/06 12:52:21;;;;;;;3.50;3.20;;;30.30;37.60;;;;;;5031639;28;20028;-63
2021/06/06 12:54:47;;;;;;;3.47;3.17;;;30.20;37.90;;;;;;5031199;28;20068;-63
2021/06/06 12:57:17;;;;;;;4.72;3.20;;;30.00;38.20;;;;;;5032861;28;20029;-62
2021/06/06 12:59:43;;;;;;;3.00;2.70;;;29.90;38.60;;;;;;5031090;28;20073;-63
2021/06/06 13:02:21;;;;;;;4.90;3.25;;;29.70;38.70;;;;;;5030707;28;20030;-64
2021/06/06 13:05:09;;;;;;;3.78;3.25;;;29.50;38.50;;;;;;5032407;28;20021;-63
2021/06/06 13:07:36;;;;;;;4.47;2.70;;;29.20;38.50;;;;;;5032557;28;20065;-64
2021/06/06 13:10:26;;;;;;;3.22;2.78;;;28.90;39.20;;;;;;5032517;28;20456;-63